createdAt,value
2022-08-05T00:01:36.549Z,1.75
2022-08-05T00:04:16.916Z,1.92
2022-08-05T00:06:44.806Z,1.83
2022-08-05T00:09:15.761Z,1.60
2022-08-05T00:11:48.379Z,1.77
2022-08-05T00:14:17.432Z,1.98
2022-08-05T00:16:52.971Z,2.03
2022-08-05T00:19:23.306Z,1.80
2022-08-05T00:21:54.007Z,1.65
2022-08-05T00:24:24.217Z,1.65
2022-08-05T00:26:53.561Z,2.03
2022-08-05T00:29:22.624Z,1.85
2022-08-05T00:32:13.169Z,1.65
2022-08-05T00:35:04.582Z,1.60
2022-08-05T00:37:35.423Z,1.77
2022-08-05T00:40:26.672Z,1.60
2022-08-05T00:42:59.732Z,1.63
2022-08-05T00:45:38.122Z,2.08
2022-08-05T00:48:08.261Z,1.73
2022-08-05T00:50:36.567Z,1.90
2022-08-05T00:53:03.795Z,1.55
2022-08-05T00:55:42.811Z,1.63
2022-08-05T00:58:13.860Z,1.92
2022-08-05T01:00:42.206Z,1.63
2022-08-05T01:03:22.270Z,1.95
2022-08-05T01:05:54.911Z,1.33
2022-08-05T01:08:40.698Z,1.75
2022-08-05T01:11:13.685Z,1.80
2022-08-05T01:13:58.904Z,1.35
2022-08-05T01:16:40.596Z,1.73
2022-08-05T01:19:46.104Z,1.80
2022-08-05T01:22:34.093Z,1.67
2022-08-05T01:25:22.817Z,1.70
2022-08-05T01:28:08.821Z,1.40
2022-08-05T01:30:40.349Z,1.48
2022-08-05T01:33:21.856Z,1.40
2022-08-05T01:35:55.602Z,1.48
2022-08-05T01:38:30.083Z,1.52
2022-08-05T01:41:01.986Z,1.50
2022-08-05T01:43:30.720Z,1.80
2022-08-05T01:48:36.835Z,1.80
2022-08-05T01:51:12.521Z,1.60
2022-08-05T01:53:58.301Z,1.58
2022-08-05T01:58:10.721Z,1.52
2022-08-05T01:59:20.324Z,1.52
2022-08-05T02:01:49.709Z,2.03
2022-08-05T02:04:20.740Z,1.33
2022-08-05T02:06:48.220Z,1.52
2022-08-05T02:09:16.450Z,1.45
2022-08-05T02:12:04.984Z,1.38
2022-08-05T02:15:04.452Z,1.60
2022-08-05T02:18:27.885Z,1.55
2022-08-05T02:20:39.066Z,1.48
2022-08-05T02:23:11.009Z,1.70
2022-08-05T02:25:49.072Z,1.73
2022-08-05T02:28:29.337Z,1.67
2022-08-05T02:31:02.726Z,1.30
2022-08-05T02:33:38.149Z,1.77
2022-08-05T02:36:09.589Z,1.88
2022-08-05T02:38:38.501Z,2.00
2022-08-05T02:41:17.221Z,1.45
2022-08-05T02:44:02.901Z,1.40
2022-08-05T02:49:03.167Z,1.33
2022-08-05T02:52:03.012Z,1.50
2022-08-05T02:54:34.984Z,1.45
2022-08-05T02:57:10.399Z,1.50
2022-08-05T02:59:55.799Z,1.40
2022-08-05T03:02:29.029Z,1.38
2022-08-05T03:04:58.645Z,1.73
2022-08-05T03:08:00.848Z,1.60
2022-08-05T03:10:24.638Z,1.75
2022-08-05T03:12:53.165Z,1.70
2022-08-05T03:15:23.384Z,1.38
2022-08-05T03:17:56.030Z,1.25
2022-08-05T03:20:25.208Z,1.60
2022-08-05T03:23:05.137Z,1.40
2022-08-05T03:26:30.536Z,1.52
2022-08-05T03:28:20.806Z,2.00
2022-08-05T03:30:51.055Z,2.30
2022-08-05T03:33:22.757Z,1.70
2022-08-05T03:35:59.757Z,1.63
2022-08-05T03:38:33.172Z,1.80
2022-08-05T03:41:00.823Z,1.45
2022-08-05T03:44:09.731Z,1.48
2022-08-05T03:46:22.988Z,1.35
2022-08-05T03:48:56.488Z,1.90
2022-08-05T03:52:49.325Z,1.60
2022-08-05T03:55:50.221Z,1.60
2022-08-05T04:00:15.894Z,1.48
2022-08-05T04:02:52.095Z,1.40
2022-08-05T04:05:33.261Z,1.20
2022-08-05T04:08:05.483Z,1.52
2022-08-05T04:10:37.967Z,1.30
2022-08-05T04:13:07.708Z,1.65
2022-08-05T04:15:36.501Z,1.30
2022-08-05T04:20:34.585Z,1.40
2022-08-05T04:23:01.861Z,1.20
2022-08-05T04:25:57.900Z,1.60
2022-08-05T04:28:17.247Z,1.70
2022-08-05T04:30:44.822Z,1.30
2022-08-05T04:33:12.209Z,1.50
2022-08-05T04:36:11.110Z,1.45
2022-08-05T04:38:39.093Z,1.30
2022-08-05T04:41:09.525Z,1.50
2022-08-05T04:43:48.059Z,1.50
2022-08-05T04:46:28.248Z,1.38
2022-08-05T04:48:57.965Z,1.55
2022-08-05T04:51:25.981Z,1.60
2022-08-05T04:53:57.724Z,1.42
2022-08-05T04:56:34.553Z,1.40
2022-08-05T04:59:24.324Z,1.10
2022-08-05T05:02:07.590Z,1.35
2022-08-05T05:07:17.878Z,1.75
2022-08-05T05:09:45.595Z,1.50
2022-08-05T05:12:12.675Z,1.80
2022-08-05T05:14:49.321Z,1.73
2022-08-05T05:17:23.454Z,1.60
2022-08-05T05:19:54.010Z,1.60
2022-08-05T05:22:24.576Z,2.00
2022-08-05T05:25:00.132Z,1.80
2022-08-05T05:27:44.636Z,1.60
2022-08-05T05:30:30.866Z,1.58
2022-08-05T05:33:09.422Z,1.50
2022-08-05T05:35:48.295Z,1.50
2022-08-05T05:38:22.942Z,1.48
2022-08-05T05:40:58.172Z,1.83
2022-08-05T05:43:57.523Z,1.50
2022-08-05T05:46:17.258Z,1.90
2022-08-05T05:48:48.043Z,1.60
2022-08-05T05:51:23.248Z,1.63
2022-08-05T05:53:57.420Z,1.65
2022-08-05T05:56:32.486Z,1.67
2022-08-05T05:59:06.776Z,1.75
2022-08-05T06:01:37.416Z,1.50
2022-08-05T06:04:11.745Z,1.27
2022-08-05T06:06:43.071Z,1.50
2022-08-05T06:09:17.280Z,1.42
2022-08-05T06:11:59.071Z,1.60
2022-08-05T06:14:28.086Z,1.27
2022-08-05T06:19:26.154Z,1.50
2022-08-05T06:22:06.392Z,1.60
2022-08-05T06:24:34.898Z,1.83
2022-08-05T06:27:03.894Z,1.83
2022-08-05T06:29:46.799Z,1.63
2022-08-05T06:32:25.446Z,1.50
2022-08-05T06:34:56.196Z,1.58
2022-08-05T06:37:55.548Z,1.65
2022-08-05T06:40:18.249Z,1.60
2022-08-05T06:42:51.549Z,1.45
2022-08-05T06:46:03.041Z,1.70
2022-08-05T06:48:36.869Z,1.70
2022-08-05T06:50:55.555Z,1.52
2022-08-05T06:53:28.278Z,1.90
2022-08-05T06:55:57.398Z,1.50
2022-08-05T06:58:35.388Z,1.70
2022-08-05T07:01:06.252Z,1.80
2022-08-05T07:03:34.162Z,1.60
2022-08-05T07:06:06.266Z,1.70
2022-08-05T07:08:47.467Z,1.60
2022-08-05T07:11:22.468Z,2.35
2022-08-05T07:14:20.586Z,1.73
2022-08-05T07:17:59.331Z,2.20
2022-08-05T07:22:35.711Z,1.77
2022-08-05T07:25:23.217Z,1.40
2022-08-05T07:27:58.023Z,2.03
2022-08-05T07:30:31.814Z,1.45
2022-08-05T07:33:00.885Z,1.65
2022-08-05T07:36:04.909Z,1.80
2022-08-05T07:38:32.001Z,1.80
2022-08-05T07:42:07.355Z,1.67
2022-08-05T07:43:56.223Z,1.85
2022-08-05T07:46:26.243Z,1.83
2022-08-05T07:49:02.709Z,1.67
2022-08-05T07:51:48.635Z,2.20
2022-08-05T07:54:26.347Z,1.60
2022-08-05T07:57:13.675Z,2.13
2022-08-05T07:59:41.466Z,1.65
2022-08-05T08:02:15.773Z,1.95
2022-08-05T08:04:47.781Z,2.03
2022-08-05T08:07:17.961Z,1.80
2022-08-05T08:09:45.995Z,1.90
2022-08-05T08:12:33.627Z,1.70
2022-08-05T08:15:02.172Z,1.95
2022-08-05T08:17:30.246Z,1.95
2022-08-05T08:20:22.066Z,1.95
2022-08-05T08:22:44.336Z,1.80
2022-08-05T08:25:16.420Z,1.90
2022-08-05T08:27:47.365Z,1.90
2022-08-05T08:30:29.500Z,2.38
2022-08-05T08:33:08.662Z,2.03
2022-08-05T08:35:53.077Z,1.98
2022-08-05T08:38:36.060Z,2.08
2022-08-05T08:41:09.935Z,1.80
2022-08-05T08:45:16.624Z,1.67
2022-08-05T08:46:31.950Z,2.28
2022-08-05T08:49:17.453Z,2.03
2022-08-05T08:52:04.012Z,1.77
2022-08-05T08:54:34.231Z,1.85
2022-08-05T08:57:11.467Z,1.52
2022-08-05T08:59:41.959Z,1.83
2022-08-05T09:02:16.653Z,1.70
2022-08-05T09:04:58.202Z,2.63
2022-08-05T09:07:39.486Z,1.75
2022-08-05T09:10:20.646Z,1.90
2022-08-05T09:12:54.389Z,1.65
2022-08-05T09:15:23.646Z,1.88
2022-08-05T09:17:53.031Z,1.55
2022-08-05T09:20:20.859Z,1.48
2022-08-05T09:23:19.674Z,1.50
2022-08-05T09:26:20.464Z,1.30
2022-08-05T09:28:48.552Z,1.52
2022-08-05T09:31:22.366Z,1.30
2022-08-05T09:34:07.606Z,1.45
2022-08-05T09:36:54.106Z,1.55
2022-08-05T09:39:41.426Z,1.40
2022-08-05T09:42:23.152Z,1.30
2022-08-05T09:44:56.113Z,1.48
2022-08-05T09:47:25.926Z,1.80
2022-08-05T09:50:02.063Z,1.70
2022-08-05T09:52:30.206Z,1.67
2022-08-05T09:55:57.128Z,1.90
2022-08-05T09:57:58.728Z,2.13
2022-08-05T10:00:30.492Z,1.73
2022-08-05T10:02:59.044Z,1.30
2022-08-05T10:08:35.256Z,1.60
2022-08-05T10:10:54.176Z,2.13
2022-08-05T10:13:45.741Z,2.00
2022-08-05T10:16:37.625Z,1.30
2022-08-05T10:19:09.267Z,1.73
2022-08-05T10:21:41.005Z,1.40
2022-08-05T10:24:13.735Z,1.40
2022-08-05T10:26:51.563Z,1.30
2022-08-05T10:29:24.051Z,1.60
2022-08-05T10:32:55.809Z,2.35
2022-08-05T10:35:01.113Z,1.65
2022-08-05T10:37:44.573Z,1.75
2022-08-05T10:40:38.950Z,1.50
2022-08-05T10:46:08.223Z,1.88
2022-08-05T10:48:56.592Z,1.67
2022-08-05T10:51:28.470Z,1.48
2022-08-05T10:54:22.960Z,1.80
2022-08-05T10:56:56.099Z,1.60
2022-08-05T11:00:02.727Z,1.70
2022-08-05T11:02:34.795Z,1.80
2022-08-05T11:05:10.540Z,1.85
2022-08-05T11:08:02.830Z,2.05
2022-08-05T11:10:37.297Z,1.83
2022-08-05T11:13:06.588Z,1.45
2022-08-05T11:16:00.623Z,1.70
2022-08-05T11:18:32.646Z,2.13
2022-08-05T11:21:11.222Z,1.60
2022-08-05T11:24:03.912Z,1.50
2022-08-05T11:26:43.210Z,1.65
2022-08-05T11:29:43.177Z,1.20
2022-08-05T11:32:27.617Z,1.80
2022-08-05T11:34:55.547Z,1.60
2022-08-05T11:38:28.001Z,2.33
2022-08-05T11:41:35.359Z,1.63
2022-08-05T11:44:05.516Z,1.60
2022-08-05T11:46:35.323Z,1.65
2022-08-05T11:49:03.937Z,1.85
2022-08-05T11:54:33.094Z,1.52
2022-08-05T11:57:08.560Z,1.88
2022-08-05T12:02:30.067Z,1.70
2022-08-05T12:05:08.221Z,1.80
2022-08-05T12:08:03.702Z,2.17
2022-08-05T12:10:43.161Z,1.95
2022-08-05T12:13:28.042Z,1.73
2022-08-05T12:16:15.317Z,1.65
2022-08-05T12:18:52.765Z,2.33
2022-08-05T12:21:39.274Z,1.95
2022-08-05T12:24:13.951Z,1.55
2022-08-05T12:26:46.551Z,1.40
2022-08-05T12:29:17.765Z,2.05
2022-08-05T12:31:53.696Z,1.88
2022-08-05T12:34:25.789Z,1.45
2022-08-05T12:36:54.561Z,2.00
2022-08-05T12:39:23.658Z,2.17
2022-08-05T12:42:02.056Z,1.70
2022-08-05T12:44:33.739Z,1.73
2022-08-05T12:47:02.076Z,2.08
2022-08-05T12:50:03.448Z,1.95
2022-08-05T12:52:32.403Z,1.70
2022-08-05T12:55:15.839Z,1.92
2022-08-05T12:58:38.512Z,2.30
2022-08-05T13:02:04.443Z,1.77
2022-08-05T13:03:21.647Z,1.98
2022-08-05T13:05:50.135Z,2.05
2022-08-05T13:08:20.120Z,1.80
2022-08-05T13:10:50.311Z,2.03
2022-08-05T13:14:06.742Z,1.85
2022-08-05T13:16:15.472Z,2.22
2022-08-05T13:18:55.169Z,2.05
2022-08-05T13:21:27.688Z,1.92
2022-08-05T13:23:55.777Z,1.90
2022-08-05T13:26:30.051Z,1.90
2022-08-05T13:28:57.569Z,2.20
2022-08-05T13:31:34.082Z,1.92
2022-08-05T13:34:20.918Z,1.70
2022-08-05T13:36:52.922Z,2.10
2022-08-05T13:40:13.054Z,1.80
2022-08-05T13:42:07.329Z,1.60
2022-08-05T13:44:34.823Z,1.63
2022-08-05T13:47:08.524Z,1.83
2022-08-05T13:49:36.287Z,1.98
2022-08-05T13:52:14.870Z,1.70
2022-08-05T13:57:09.950Z,2.00
2022-08-05T13:59:38.086Z,3.05
2022-08-05T14:02:26.562Z,2.57
2022-08-05T14:05:15.068Z,2.47
2022-08-05T14:08:00.139Z,1.88
2022-08-05T14:10:31.352Z,2.10
2022-08-05T14:12:59.389Z,2.08
2022-08-05T14:16:06.817Z,2.22
2022-08-05T14:18:17.727Z,1.63
2022-08-05T14:20:47.669Z,2.00
2022-08-05T14:23:23.410Z,2.10
2022-08-05T14:25:55.351Z,1.98
2022-08-05T14:28:29.891Z,2.00
2022-08-05T14:30:58.279Z,2.13
2022-08-05T14:33:25.667Z,2.40
2022-08-05T14:35:54.308Z,2.40
2022-08-05T14:38:33.152Z,1.77
2022-08-05T14:41:06.099Z,2.60
2022-08-05T14:43:59.036Z,2.80
2022-08-05T14:46:21.352Z,2.53
2022-08-05T14:48:49.197Z,2.45
2022-08-05T14:51:19.623Z,2.40
2022-08-05T14:54:06.888Z,2.63
2022-08-05T14:56:38.020Z,2.75
2022-08-05T14:59:11.668Z,3.72
2022-08-05T15:04:22.370Z,2.88
2022-08-05T15:06:53.079Z,4.45
2022-08-05T15:09:51.431Z,2.33
2022-08-05T15:12:16.543Z,2.80
2022-08-05T15:14:50.497Z,2.70
2022-08-05T15:17:46.651Z,2.63
2022-08-05T15:20:17.174Z,2.40
2022-08-05T15:22:52.244Z,2.50
2022-08-05T15:25:23.660Z,2.95
2022-08-05T15:28:08.744Z,2.60
2022-08-05T15:30:40.363Z,2.85
2022-08-05T15:33:07.616Z,3.00
2022-08-05T15:35:36.292Z,2.75
2022-08-05T15:41:20.310Z,2.67
2022-08-05T15:43:46.013Z,3.30
2022-08-05T15:46:14.273Z,2.58
2022-08-05T15:48:52.665Z,2.70
2022-08-05T15:52:10.135Z,2.92
2022-08-05T15:54:16.892Z,2.42
2022-08-05T15:56:43.937Z,2.65
2022-08-05T15:59:21.872Z,2.75
2022-08-05T16:04:25.197Z,3.53
2022-08-05T16:06:53.926Z,3.42
2022-08-05T16:09:23.645Z,3.78
2022-08-05T16:11:53.218Z,3.03
2022-08-05T16:14:22.268Z,3.20
2022-08-05T16:16:50.070Z,3.20
2022-08-05T16:19:25.467Z,3.65
2022-08-05T16:22:04.452Z,2.88
2022-08-05T16:24:41.908Z,2.80
2022-08-05T16:27:18.516Z,3.50
2022-08-05T16:29:51.079Z,4.03
2022-08-05T16:32:28.715Z,3.28
2022-08-05T16:34:58.970Z,3.65
2022-08-05T16:38:02.533Z,5.05
2022-08-05T16:40:24.798Z,3.70
2022-08-05T16:42:52.239Z,3.67
2022-08-05T16:46:03.733Z,3.92
2022-08-05T16:48:06.314Z,4.47
2022-08-05T16:50:33.218Z,3.75
2022-08-05T16:53:09.191Z,3.28
2022-08-05T16:55:46.771Z,3.33
2022-08-05T16:58:14.668Z,3.28
2022-08-05T17:00:48.133Z,3.35
2022-08-05T17:03:19.984Z,3.58
2022-08-05T17:05:53.749Z,3.08
2022-08-05T17:08:36.778Z,3.25
2022-08-05T17:11:16.501Z,3.20
2022-08-05T17:13:45.103Z,3.45
2022-08-05T17:16:33.294Z,3.35
2022-08-05T17:19:00.147Z,4.20
2022-08-05T17:21:35.465Z,3.70
2022-08-05T17:24:18.418Z,3.75
2022-08-05T17:26:52.487Z,4.15
2022-08-05T17:29:22.566Z,4.00
2022-08-05T17:31:59.962Z,3.67
2022-08-05T17:34:30.251Z,4.03
2022-08-05T17:37:00.155Z,4.40
2022-08-05T17:39:33.516Z,4.28
2022-08-05T17:42:19.961Z,3.85
2022-08-05T17:44:51.037Z,4.32
2022-08-05T17:47:22.849Z,3.90
2022-08-05T17:50:04.102Z,4.10
2022-08-05T17:52:53.306Z,4.63
2022-08-05T17:55:22.799Z,4.60
2022-08-05T17:58:02.052Z,4.43
2022-08-05T18:00:29.671Z,4.30
2022-08-05T18:02:56.969Z,4.28
2022-08-05T18:05:24.151Z,4.65
2022-08-05T18:07:56.731Z,5.22
2022-08-05T18:12:52.586Z,5.15
2022-08-05T18:15:20.204Z,5.05
2022-08-05T18:18:01.034Z,4.65
2022-08-05T18:20:32.610Z,4.75
2022-08-05T18:23:09.487Z,4.82
2022-08-05T18:25:45.150Z,4.78
2022-08-05T18:28:16.635Z,5.25
2022-08-05T18:30:45.421Z,5.18
2022-08-05T18:33:17.007Z,5.13
2022-08-05T18:36:03.229Z,5.60
2022-08-05T18:38:35.882Z,5.05
2022-08-05T18:41:56.361Z,5.07
2022-08-05T18:43:51.515Z,5.75
2022-08-05T18:46:19.522Z,5.15
2022-08-05T18:48:51.576Z,5.78
2022-08-05T18:52:05.557Z,5.75
2022-08-05T18:54:26.487Z,5.72
2022-08-05T18:56:57.106Z,5.50
2022-08-05T19:02:28.267Z,5.88
2022-08-05T19:05:02.056Z,5.68
2022-08-05T19:07:47.898Z,5.57
2022-08-05T19:10:28.142Z,5.88
2022-08-05T19:12:56.352Z,6.13
2022-08-05T19:15:54.748Z,6.32
2022-08-05T19:18:13.652Z,6.38
2022-08-05T19:20:52.232Z,5.97
2022-08-05T19:24:04.481Z,6.40
2022-08-05T19:26:09.343Z,6.15
2022-08-05T19:28:42.030Z,6.82
2022-08-05T19:31:13.383Z,7.40
2022-08-05T19:33:48.609Z,6.00
2022-08-05T19:36:25.718Z,6.07
2022-08-05T19:38:55.210Z,6.45
2022-08-05T19:41:58.078Z,6.22
2022-08-05T19:44:18.696Z,7.00
2022-08-05T19:46:45.936Z,6.10
2022-08-05T19:49:17.146Z,6.50
2022-08-05T19:52:05.328Z,7.13
2022-08-05T19:54:34.293Z,6.75
2022-08-05T19:57:06.723Z,7.20
2022-08-05T19:59:55.137Z,7.13
2022-08-05T20:02:26.206Z,8.13
2022-08-05T20:04:55.446Z,7.32
2022-08-05T20:07:46.829Z,7.82
2022-08-05T20:10:14.508Z,9.63
2022-08-05T20:12:45.969Z,8.25
2022-08-05T20:15:48.663Z,7.80
2022-08-05T20:18:04.382Z,7.68
2022-08-05T20:20:38.603Z,7.30
2022-08-05T20:23:05.778Z,6.97
2022-08-05T20:25:39.942Z,6.95
2022-08-05T20:28:08.297Z,8.48
2022-08-05T20:30:40.809Z,6.95
2022-08-05T20:33:08.904Z,7.30
2022-08-05T20:35:40.305Z,7.72
2022-08-05T20:38:20.253Z,7.40
2022-08-05T20:40:53.744Z,7.72
2022-08-05T20:43:57.600Z,8.05
2022-08-05T20:46:18.380Z,7.43
2022-08-05T20:48:52.070Z,7.53
2022-08-05T20:51:19.083Z,7.30
2022-08-05T20:53:56.176Z,8.10
2022-08-05T20:56:28.695Z,8.37
2022-08-05T20:59:00.091Z,7.93
2022-08-05T21:01:41.670Z,8.55
2022-08-05T21:04:10.721Z,8.05
2022-08-05T21:06:45.040Z,7.60
2022-08-05T21:09:14.232Z,8.02
2022-08-05T21:12:07.479Z,7.72
2022-08-05T21:14:34.760Z,7.82
2022-08-05T21:17:02.924Z,7.40
2022-08-05T21:19:47.469Z,7.40
2022-08-05T21:22:17.629Z,7.45
2022-08-05T21:24:48.903Z,7.60
2022-08-05T21:27:23.891Z,7.70
2022-08-05T21:29:55.279Z,8.18
2022-08-05T21:32:23.684Z,7.28
2022-08-05T21:35:08.661Z,7.53
2022-08-05T21:37:41.397Z,7.38
2022-08-05T21:40:13.016Z,7.07
2022-08-05T21:42:45.309Z,7.38
2022-08-05T21:45:24.902Z,6.90
2022-08-05T21:48:06.319Z,7.32
2022-08-05T21:50:36.752Z,7.22
2022-08-05T21:53:16.377Z,7.68
2022-08-05T21:56:06.420Z,7.35
2022-08-05T21:58:32.196Z,7.65
2022-08-05T22:00:59.732Z,7.40
2022-08-05T22:03:49.088Z,7.43
2022-08-05T22:06:15.976Z,7.05
2022-08-05T22:08:50.553Z,7.93
2022-08-05T22:11:19.988Z,6.93
2022-08-05T22:14:32.517Z,7.55
2022-08-05T22:16:51.314Z,7.47
2022-08-05T22:20:00.390Z,8.00
2022-08-05T22:22:07.104Z,7.40
2022-08-05T22:24:53.584Z,8.25
2022-08-05T22:28:09.953Z,7.05
2022-08-05T22:30:35.200Z,7.45
2022-08-05T22:33:15.168Z,7.55
2022-08-05T22:35:48.559Z,6.68
2022-08-05T22:38:17.129Z,7.85
2022-08-05T22:40:49.581Z,7.22
2022-08-05T22:43:36.998Z,8.05
2022-08-05T22:46:12.310Z,7.70
2022-08-05T22:48:41.824Z,7.07
2022-08-05T22:51:16.121Z,6.93
2022-08-05T22:53:50.590Z,7.50
2022-08-05T22:56:30.703Z,7.18
2022-08-05T22:59:03.970Z,7.55
2022-08-05T23:02:04.630Z,7.38
2022-08-05T23:04:33.949Z,7.70
2022-08-05T23:07:01.112Z,6.95
2022-08-05T23:09:57.225Z,7.47
2022-08-05T23:12:18.002Z,7.47
2022-08-05T23:14:45.097Z,6.95
2022-08-05T23:17:34.390Z,6.45
2022-08-05T23:20:10.494Z,7.00
2022-08-05T23:22:47.420Z,7.78
2022-08-05T23:25:54.795Z,7.18
2022-08-05T23:28:07.084Z,6.75
2022-08-05T23:30:39.723Z,7.03
2022-08-05T23:33:06.968Z,7.35
2022-08-05T23:35:43.568Z,6.65
2022-08-05T23:38:12.088Z,7.75
2022-08-05T23:40:39.189Z,6.75
2022-08-05T23:43:24.335Z,7.50
2022-08-05T23:45:56.117Z,7.72
2022-08-05T23:48:25.259Z,6.82
2022-08-05T23:50:53.426Z,7.15
2022-08-05T23:53:22.663Z,7.00
2022-08-05T23:55:50.284Z,7.20
2022-08-05T23:58:31.989Z,7.20
